sensor_id;sensor_type;location;lat;lon;timestamp;pressure;altitude;pressure_sealevel;temperature
58307;BMP280;44116;50.884;4.768;2023-02-28T00:00:16;102509.99999999999;;;-2.1
58307;BMP280;44116;50.884;4.768;2023-02-28T00:02:15;102509.99999999999;;;-2.1
58307;BMP280;44116;50.884;4.768;2023-02-28T00:04:15;102500.0;;;-2.1
58307;BMP280;44116;50.884;4.768;2023-02-28T00:06:15;102500.0;;;-2.1
58307;BMP280;44116;50.884;4.768;2023-02-28T00:08:14;102509.99999999999;;;-2.1
58307;BMP280;44116;50.884;4.768;2023-02-28T00:10:14;102509.99999999999;;;-2.1
58307;BMP280;44116;50.884;4.768;2023-02-28T00:12:12;102500.0;;;-2.1
58307;BMP280;44116;50.884;4.768;2023-02-28T00:14:12;102500.0;;;-2.2
58307;BMP280;44116;50.884;4.768;2023-02-28T00:16:12;102500.0;;;-2.2
58307;BMP280;44116;50.884;4.768;2023-02-28T00:18:11;102509.99999999999;;;-2.2
58307;BMP280;44116;50.884;4.768;2023-02-28T00:20:11;102500.0;;;-2.2
58307;BMP280;44116;50.884;4.768;2023-02-28T00:24:09;102500.0;;;-2.2
58307;BMP280;44116;50.884;4.768;2023-02-28T00:26:09;102500.0;;;-2.2
58307;BMP280;44116;50.884;4.768;2023-02-28T00:28:08;102500.0;;;-2.3
58307;BMP280;44116;50.884;4.768;2023-02-28T00:30:09;102500.0;;;-2.4
58307;BMP280;44116;50.884;4.768;2023-02-28T00:32:07;102509.99999999999;;;-2.3
58307;BMP280;44116;50.884;4.768;2023-02-28T00:34:06;102500.0;;;-2.2
58307;BMP280;44116;50.884;4.768;2023-02-28T00:36:08;102509.99999999999;;;-2.2
58307;BMP280;44116;50.884;4.768;2023-02-28T00:38:05;102509.99999999999;;;-2.3
58307;BMP280;44116;50.884;4.768;2023-02-28T00:42:05;102509.99999999999;;;-2.2
58307;BMP280;44116;50.884;4.768;2023-02-28T00:44:04;102509.99999999999;;;-2.4
58307;BMP280;44116;50.884;4.768;2023-02-28T00:46:03;102509.99999999999;;;-2.4
58307;BMP280;44116;50.884;4.768;2023-02-28T00:48:03;102509.99999999999;;;-2.5
58307;BMP280;44116;50.884;4.768;2023-02-28T00:50:02;102509.99999999999;;;-2.5
58307;BMP280;44116;50.884;4.768;2023-02-28T00:54:01;102509.99999999999;;;-2.6
58307;BMP280;44116;50.884;4.768;2023-02-28T00:56:00;102509.99999999999;;;-2.7
58307;BMP280;44116;50.884;4.768;2023-02-28T00:58:00;102509.99999999999;;;-2.7
58307;BMP280;44116;50.884;4.768;2023-02-28T00:59:59;102509.99999999999;;;-2.7
58307;BMP280;44116;50.884;4.768;2023-02-28T01:01:59;102509.99999999999;;;-2.8
58307;BMP280;44116;50.884;4.768;2023-02-28T01:03:58;102509.99999999999;;;-2.8
58307;BMP280;44116;50.884;4.768;2023-02-28T01:05:58;102509.99999999999;;;-2.7
58307;BMP280;44116;50.884;4.768;2023-02-28T01:07:57;102509.99999999999;;;-2.7
58307;BMP280;44116;50.884;4.768;2023-02-28T01:09:56;102509.99999999999;;;-2.8
58307;BMP280;44116;50.884;4.768;2023-02-28T01:11:56;102509.99999999999;;;-2.8
58307;BMP280;44116;50.884;4.768;2023-02-28T01:13:55;102509.99999999999;;;-2.8
58307;BMP280;44116;50.884;4.768;2023-02-28T01:15:55;102509.99999999999;;;-2.7
58307;BMP280;44116;50.884;4.768;2023-02-28T01:17:54;102500.0;;;-2.8
58307;BMP280;44116;50.884;4.768;2023-02-28T01:19:54;102500.0;;;-2.7
58307;BMP280;44116;50.884;4.768;2023-02-28T01:23:52;102520.0;;;-2.8
58307;BMP280;44116;50.884;4.768;2023-02-28T01:25:52;102509.99999999999;;;-2.8
58307;BMP280;44116;50.884;4.768;2023-02-28T01:29:51;102509.99999999999;;;-2.8
58307;BMP280;44116;50.884;4.768;2023-02-28T01:31:50;102509.99999999999;;;-2.7
58307;BMP280;44116;50.884;4.768;2023-02-28T01:33:50;102509.99999999999;;;-2.8
58307;BMP280;44116;50.884;4.768;2023-02-28T01:35:49;102509.99999999999;;;-2.8
58307;BMP280;44116;50.884;4.768;2023-02-28T01:37:49;102520.0;;;-2.9
58307;BMP280;44116;50.884;4.768;2023-02-28T01:39:48;102520.0;;;-2.7
58307;BMP280;44116;50.884;4.768;2023-02-28T01:41:48;102520.0;;;-2.8
58307;BMP280;44116;50.884;4.768;2023-02-28T01:45:46;102520.0;;;-2.9
58307;BMP280;44116;50.884;4.768;2023-02-28T01:47:46;102520.0;;;-2.9
58307;BMP280;44116;50.884;4.768;2023-02-28T01:49:45;102509.99999999999;;;-2.9
58307;BMP280;44116;50.884;4.768;2023-02-28T01:51:45;102509.99999999999;;;-2.8
58307;BMP280;44116;50.884;4.768;2023-02-28T01:53:45;102509.99999999999;;;-2.7
58307;BMP280;44116;50.884;4.768;2023-02-28T01:55:45;102509.99999999999;;;-2.9
58307;BMP280;44116;50.884;4.768;2023-02-28T01:59:43;102500.0;;;-3.0
58307;BMP280;44116;50.884;4.768;2023-02-28T02:01:42;102509.99999999999;;;-3.0
58307;BMP280;44116;50.884;4.768;2023-02-28T02:03:41;102509.99999999999;;;-2.9
58307;BMP280;44116;50.884;4.768;2023-02-28T02:05:41;102500.0;;;-3.0
58307;BMP280;44116;50.884;4.768;2023-02-28T02:07:41;102500.0;;;-3.0
58307;BMP280;44116;50.884;4.768;2023-02-28T02:09:40;102500.0;;;-3.1
58307;BMP280;44116;50.884;4.768;2023-02-28T02:11:39;102490.00000000001;;;-3.1
58307;BMP280;44116;50.884;4.768;2023-02-28T02:15:39;102490.00000000001;;;-3.3
58307;BMP280;44116;50.884;4.768;2023-02-28T02:19:44;102490.00000000001;;;-3.1
58307;BMP280;44116;50.884;4.768;2023-02-28T02:23:44;102490.00000000001;;;-3.1
58307;BMP280;44116;50.884;4.768;2023-02-28T02:25:35;102490.00000000001;;;-3.2
58307;BMP280;44116;50.884;4.768;2023-02-28T02:27:39;102490.00000000001;;;-3.2
58307;BMP280;44116;50.884;4.768;2023-02-28T02:29:45;102480.0;;;-3.2
58307;BMP280;44116;50.884;4.768;2023-02-28T02:31:39;102480.0;;;-3.3
58307;BMP280;44116;50.884;4.768;2023-02-28T02:35:34;102480.0;;;-3.2
58307;BMP280;44116;50.884;4.768;2023-02-28T02:37:33;102480.0;;;-3.2
58307;BMP280;44116;50.884;4.768;2023-02-28T02:39:32;102480.0;;;-3.2
58307;BMP280;44116;50.884;4.768;2023-02-28T02:41:33;102480.0;;;-3.2
58307;BMP280;44116;50.884;4.768;2023-02-28T02:47:29;102480.0;;;-3.2
58307;BMP280;44116;50.884;4.768;2023-02-28T02:49:29;102470.0;;;-3.4
58307;BMP280;44116;50.884;4.768;2023-02-28T02:51:28;102470.0;;;-3.4
58307;BMP280;44116;50.884;4.768;2023-02-28T02:53:28;102470.0;;;-3.4
58307;BMP280;44116;50.884;4.768;2023-02-28T02:55:26;102470.0;;;-3.4
58307;BMP280;44116;50.884;4.768;2023-02-28T02:57:27;102470.0;;;-3.4
58307;BMP280;44116;50.884;4.768;2023-02-28T02:59:25;102470.0;;;-3.5
58307;BMP280;44116;50.884;4.768;2023-02-28T03:01:25;102470.0;;;-3.5
58307;BMP280;44116;50.884;4.768;2023-02-28T03:05:25;102480.0;;;-3.4
58307;BMP280;44116;50.884;4.768;2023-02-28T03:07:23;102480.0;;;-3.4
58307;BMP280;44116;50.884;4.768;2023-02-28T03:09:22;102480.0;;;-3.3
58307;BMP280;44116;50.884;4.768;2023-02-28T03:11:22;102480.0;;;-3.4
58307;BMP280;44116;50.884;4.768;2023-02-28T03:15:21;102470.0;;;-3.5
58307;BMP280;44116;50.884;4.768;2023-02-28T03:17:23;102470.0;;;-3.4
58307;BMP280;44116;50.884;4.768;2023-02-28T03:19:24;102480.0;;;-3.5
58307;BMP280;44116;50.884;4.768;2023-02-28T03:21:20;102480.0;;;-3.4
58307;BMP280;44116;50.884;4.768;2023-02-28T03:23:19;102480.0;;;-3.6
58307;BMP280;44116;50.884;4.768;2023-02-28T03:25:19;102480.0;;;-3.5
58307;BMP280;44116;50.884;4.768;2023-02-28T03:27:19;102470.0;;;-3.5
58307;BMP280;44116;50.884;4.768;2023-02-28T03:29:18;102480.0;;;-3.3
58307;BMP280;44116;50.884;4.768;2023-02-28T03:31:18;102480.0;;;-3.5
58307;BMP280;44116;50.884;4.768;2023-02-28T03:33:16;102480.0;;;-3.6
58307;BMP280;44116;50.884;4.768;2023-02-28T03:35:16;102480.0;;;-3.7
58307;BMP280;44116;50.884;4.768;2023-02-28T03:37:15;102470.0;;;-3.7
58307;BMP280;44116;50.884;4.768;2023-02-28T03:39:14;102470.0;;;-3.7
58307;BMP280;44116;50.884;4.768;2023-02-28T03:41:14;102480.0;;;-3.5
58307;BMP280;44116;50.884;4.768;2023-02-28T03:43:15;102490.00000000001;;;-3.6
58307;BMP280;44116;50.884;4.768;2023-02-28T03:45:13;102490.00000000001;;;-3.7
58307;BMP280;44116;50.884;4.768;2023-02-28T03:47:12;102490.00000000001;;;-3.7
58307;BMP280;44116;50.884;4.768;2023-02-28T03:49:11;102480.0;;;-3.8
58307;BMP280;44116;50.884;4.768;2023-02-28T03:51:11;102490.00000000001;;;-3.8
58307;BMP280;44116;50.884;4.768;2023-02-28T03:53:10;102490.00000000001;;;-3.6
58307;BMP280;44116;50.884;4.768;2023-02-28T03:55:09;102490.00000000001;;;-3.7
58307;BMP280;44116;50.884;4.768;2023-02-28T03:57:10;102500.0;;;-3.6
58307;BMP280;44116;50.884;4.768;2023-02-28T03:59:10;102500.0;;;-3.8
58307;BMP280;44116;50.884;4.768;2023-02-28T04:01:08;102490.00000000001;;;-3.8
58307;BMP280;44116;50.884;4.768;2023-02-28T04:03:06;102490.00000000001;;;-3.7
58307;BMP280;44116;50.884;4.768;2023-02-28T04:05:06;102500.0;;;-3.8
58307;BMP280;44116;50.884;4.768;2023-02-28T04:07:06;102490.00000000001;;;-3.8
58307;BMP280;44116;50.884;4.768;2023-02-28T04:09:05;102490.00000000001;;;-3.8
58307;BMP280;44116;50.884;4.768;2023-02-28T04:11:05;102490.00000000001;;;-3.8
58307;BMP280;44116;50.884;4.768;2023-02-28T04:13:04;102490.00000000001;;;-3.8
58307;BMP280;44116;50.884;4.768;2023-02-28T04:15:03;102480.0;;;-3.8
58307;BMP280;44116;50.884;4.768;2023-02-28T04:17:03;102480.0;;;-3.8
58307;BMP280;44116;50.884;4.768;2023-02-28T04:19:02;102480.0;;;-3.7
58307;BMP280;44116;50.884;4.768;2023-02-28T04:23:01;102490.00000000001;;;-3.6
58307;BMP280;44116;50.884;4.768;2023-02-28T04:25:00;102480.0;;;-3.5
58307;BMP280;44116;50.884;4.768;2023-02-28T04:26:59;102490.00000000001;;;-3.6
58307;BMP280;44116;50.884;4.768;2023-02-28T04:28:59;102490.00000000001;;;-3.6
58307;BMP280;44116;50.884;4.768;2023-02-28T04:32:58;102490.00000000001;;;-3.6
58307;BMP280;44116;50.884;4.768;2023-02-28T04:34:57;102490.00000000001;;;-3.6
58307;BMP280;44116;50.884;4.768;2023-02-28T04:40:56;102490.00000000001;;;-3.7
58307;BMP280;44116;50.884;4.768;2023-02-28T04:42:55;102500.0;;;-3.7
58307;BMP280;44116;50.884;4.768;2023-02-28T04:44:54;102500.0;;;-3.6
58307;BMP280;44116;50.884;4.768;2023-02-28T04:46:54;102500.0;;;-3.5
58307;BMP280;44116;50.884;4.768;2023-02-28T04:48:53;102500.0;;;-3.6
58307;BMP280;44116;50.884;4.768;2023-02-28T04:50:52;102500.0;;;-3.7
58307;BMP280;44116;50.884;4.768;2023-02-28T04:52:52;102509.99999999999;;;-3.5
58307;BMP280;44116;50.884;4.768;2023-02-28T04:54:51;102509.99999999999;;;-3.6
58307;BMP280;44116;50.884;4.768;2023-02-28T05:00:50;102509.99999999999;;;-3.4
58307;BMP280;44116;50.884;4.768;2023-02-28T05:02:49;102509.99999999999;;;-3.6
58307;BMP280;44116;50.884;4.768;2023-02-28T05:04:49;102509.99999999999;;;-3.5
58307;BMP280;44116;50.884;4.768;2023-02-28T05:06:48;102500.0;;;-3.5
58307;BMP280;44116;50.884;4.768;2023-02-28T05:08:47;102500.0;;;-3.6
58307;BMP280;44116;50.884;4.768;2023-02-28T05:10:47;102500.0;;;-3.6
58307;BMP280;44116;50.884;4.768;2023-02-28T05:12:46;102500.0;;;-3.6
58307;BMP280;44116;50.884;4.768;2023-02-28T05:14:45;102490.00000000001;;;-3.6
58307;BMP280;44116;50.884;4.768;2023-02-28T05:16:45;102500.0;;;-3.7
58307;BMP280;44116;50.884;4.768;2023-02-28T05:18:44;102500.0;;;-3.5
58307;BMP280;44116;50.884;4.768;2023-02-28T05:20:44;102500.0;;;-3.6
58307;BMP280;44116;50.884;4.768;2023-02-28T05:22:43;102500.0;;;-3.5
58307;BMP280;44116;50.884;4.768;2023-02-28T05:26:42;102500.0;;;-3.5
58307;BMP280;44116;50.884;4.768;2023-02-28T05:28:42;102500.0;;;-3.6
58307;BMP280;44116;50.884;4.768;2023-02-28T05:30:41;102500.0;;;-3.5
58307;BMP280;44116;50.884;4.768;2023-02-28T05:32:40;102500.0;;;-3.6
58307;BMP280;44116;50.884;4.768;2023-02-28T05:34:40;102509.99999999999;;;-3.5
58307;BMP280;44116;50.884;4.768;2023-02-28T05:36:39;102509.99999999999;;;-3.5
58307;BMP280;44116;50.884;4.768;2023-02-28T05:38:39;102509.99999999999;;;-3.4
58307;BMP280;44116;50.884;4.768;2023-02-28T05:40:38;102509.99999999999;;;-3.3
58307;BMP280;44116;50.884;4.768;2023-02-28T05:42:38;102509.99999999999;;;-3.4
58307;BMP280;44116;50.884;4.768;2023-02-28T05:44:37;102520.0;;;-3.5
58307;BMP280;44116;50.884;4.768;2023-02-28T05:46:36;102509.99999999999;;;-3.3
58307;BMP280;44116;50.884;4.768;2023-02-28T05:48:36;102509.99999999999;;;-3.3
58307;BMP280;44116;50.884;4.768;2023-02-28T05:50:35;102509.99999999999;;;-3.2
58307;BMP280;44116;50.884;4.768;2023-02-28T05:52:35;102520.0;;;-3.4
58307;BMP280;44116;50.884;4.768;2023-02-28T05:54:34;102520.0;;;-3.5
58307;BMP280;44116;50.884;4.768;2023-02-28T05:58:33;102520.0;;;-3.4
58307;BMP280;44116;50.884;4.768;2023-02-28T06:00:32;102520.0;;;-3.5
58307;BMP280;44116;50.884;4.768;2023-02-28T06:02:32;102520.0;;;-3.5
58307;BMP280;44116;50.884;4.768;2023-02-28T06:04:32;102520.0;;;-3.5
58307;BMP280;44116;50.884;4.768;2023-02-28T06:06:31;102520.0;;;-3.5
58307;BMP280;44116;50.884;4.768;2023-02-28T06:08:30;102520.0;;;-3.5
58307;BMP280;44116;50.884;4.768;2023-02-28T06:10:30;102509.99999999999;;;-3.5
58307;BMP280;44116;50.884;4.768;2023-02-28T06:12:29;102509.99999999999;;;-3.5
58307;BMP280;44116;50.884;4.768;2023-02-28T06:14:29;102520.0;;;-3.5
58307;BMP280;44116;50.884;4.768;2023-02-28T06:18:28;102509.99999999999;;;-3.5
58307;BMP280;44116;50.884;4.768;2023-02-28T06:20:27;102509.99999999999;;;-3.5
58307;BMP280;44116;50.884;4.768;2023-02-28T06:24:26;102520.0;;;-3.5
58307;BMP280;44116;50.884;4.768;2023-02-28T06:26:25;102530.0;;;-3.5
58307;BMP280;44116;50.884;4.768;2023-02-28T06:28:25;102520.0;;;-3.5
58307;BMP280;44116;50.884;4.768;2023-02-28T06:30:24;102520.0;;;-3.7
58307;BMP280;44116;50.884;4.768;2023-02-28T06:32:24;102530.0;;;-3.5
58307;BMP280;44116;50.884;4.768;2023-02-28T06:34:23;102530.0;;;-3.6
58307;BMP280;44116;50.884;4.768;2023-02-28T06:36:22;102530.0;;;-3.6
58307;BMP280;44116;50.884;4.768;2023-02-28T06:38:22;102530.0;;;-3.6
58307;BMP280;44116;50.884;4.768;2023-02-28T06:40:21;102530.0;;;-3.5
58307;BMP280;44116;50.884;4.768;2023-02-28T06:42:21;102530.0;;;-3.5
58307;BMP280;44116;50.884;4.768;2023-02-28T06:44:20;102530.0;;;-3.5
58307;BMP280;44116;50.884;4.768;2023-02-28T06:46:20;102530.0;;;-3.5
58307;BMP280;44116;50.884;4.768;2023-02-28T06:48:19;102530.0;;;-3.5
58307;BMP280;44116;50.884;4.768;2023-02-28T06:50:18;102530.0;;;-3.5
58307;BMP280;44116;50.884;4.768;2023-02-28T06:52:18;102530.0;;;-3.5
58307;BMP280;44116;50.884;4.768;2023-02-28T06:54:17;102530.0;;;-3.5
58307;BMP280;44116;50.884;4.768;2023-02-28T06:56:17;102530.0;;;-3.6
58307;BMP280;44116;50.884;4.768;2023-02-28T06:58:16;102540.00000000001;;;-3.6
58307;BMP280;44116;50.884;4.768;2023-02-28T07:00:16;102540.00000000001;;;-3.6
58307;BMP280;44116;50.884;4.768;2023-02-28T07:02:15;102530.0;;;-3.7
58307;BMP280;44116;50.884;4.768;2023-02-28T07:04:14;102530.0;;;-3.8
58307;BMP280;44116;50.884;4.768;2023-02-28T07:08:14;102540.00000000001;;;-3.6
58307;BMP280;44116;50.884;4.768;2023-02-28T07:10:13;102540.00000000001;;;-3.9
58307;BMP280;44116;50.884;4.768;2023-02-28T07:12:12;102550.0;;;-3.8
58307;BMP280;44116;50.884;4.768;2023-02-28T07:14:12;102550.0;;;-3.8
58307;BMP280;44116;50.884;4.768;2023-02-28T07:16:11;102550.0;;;-3.7
58307;BMP280;44116;50.884;4.768;2023-02-28T07:18:10;102550.0;;;-3.7
58307;BMP280;44116;50.884;4.768;2023-02-28T07:20:11;102550.0;;;-3.7
58307;BMP280;44116;50.884;4.768;2023-02-28T07:22:09;102550.0;;;-3.6
58307;BMP280;44116;50.884;4.768;2023-02-28T07:24:09;102550.0;;;-3.6
58307;BMP280;44116;50.884;4.768;2023-02-28T07:26:10;102559.99999999999;;;-3.5
58307;BMP280;44116;50.884;4.768;2023-02-28T07:28:08;102550.0;;;-3.6
58307;BMP280;44116;50.884;4.768;2023-02-28T07:30:08;102559.99999999999;;;-3.5
58307;BMP280;44116;50.884;4.768;2023-02-28T07:34:06;102559.99999999999;;;-3.5
58307;BMP280;44116;50.884;4.768;2023-02-28T07:36:07;102559.99999999999;;;-3.4
58307;BMP280;44116;50.884;4.768;2023-02-28T07:38:05;102559.99999999999;;;-3.4
58307;BMP280;44116;50.884;4.768;2023-02-28T07:40:05;102559.99999999999;;;-3.3
58307;BMP280;44116;50.884;4.768;2023-02-28T07:42:04;102559.99999999999;;;-3.3
58307;BMP280;44116;50.884;4.768;2023-02-28T07:44:03;102550.0;;;-3.0
58307;BMP280;44116;50.884;4.768;2023-02-28T07:46:03;102550.0;;;-2.9
58307;BMP280;44116;50.884;4.768;2023-02-28T07:48:02;102550.0;;;-2.9
58307;BMP280;44116;50.884;4.768;2023-02-28T07:52:01;102550.0;;;-2.7
58307;BMP280;44116;50.884;4.768;2023-02-28T07:54:01;102550.0;;;-2.6
58307;BMP280;44116;50.884;4.768;2023-02-28T07:56:00;102550.0;;;-2.6
58307;BMP280;44116;50.884;4.768;2023-02-28T07:58:00;102550.0;;;-2.5
58307;BMP280;44116;50.884;4.768;2023-02-28T07:59:59;102550.0;;;-2.5
58307;BMP280;44116;50.884;4.768;2023-02-28T08:01:58;102550.0;;;-2.3
58307;BMP280;44116;50.884;4.768;2023-02-28T08:03:58;102550.0;;;-2.3
58307;BMP280;44116;50.884;4.768;2023-02-28T08:05:57;102550.0;;;-2.2
58307;BMP280;44116;50.884;4.768;2023-02-28T08:07:57;102550.0;;;-2.2
58307;BMP280;44116;50.884;4.768;2023-02-28T08:09:56;102550.0;;;-1.9
58307;BMP280;44116;50.884;4.768;2023-02-28T08:11:56;102550.0;;;-1.9
58307;BMP280;44116;50.884;4.768;2023-02-28T08:13:55;102550.0;;;-1.9
58307;BMP280;44116;50.884;4.768;2023-02-28T08:15:55;102550.0;;;-1.8
58307;BMP280;44116;50.884;4.768;2023-02-28T08:19:53;102559.99999999999;;;-1.6
58307;BMP280;44116;50.884;4.768;2023-02-28T08:21:53;102559.99999999999;;;-1.6
58307;BMP280;44116;50.884;4.768;2023-02-28T08:23:52;102559.99999999999;;;-1.6
58307;BMP280;44116;50.884;4.768;2023-02-28T08:25:52;102570.0;;;-1.5
58307;BMP280;44116;50.884;4.768;2023-02-28T08:27:51;102570.0;;;-1.4
58307;BMP280;44116;50.884;4.768;2023-02-28T08:29:51;102570.0;;;-1.4
58307;BMP280;44116;50.884;4.768;2023-02-28T08:31:50;102570.0;;;-1.3
58307;BMP280;44116;50.884;4.768;2023-02-28T08:33:50;102580.0;;;-1.2
58307;BMP280;44116;50.884;4.768;2023-02-28T08:35:51;102580.0;;;-1.2
58307;BMP280;44116;50.884;4.768;2023-02-28T08:37:49;102590.00000000001;;;-1.1
58307;BMP280;44116;50.884;4.768;2023-02-28T08:39:48;102580.0;;;-1.1
58307;BMP280;44116;50.884;4.768;2023-02-28T08:41:48;102580.0;;;-1.0
58307;BMP280;44116;50.884;4.768;2023-02-28T08:43:47;102580.0;;;-0.9
58307;BMP280;44116;50.884;4.768;2023-02-28T08:45:47;102580.0;;;-0.9
58307;BMP280;44116;50.884;4.768;2023-02-28T08:47:46;102580.0;;;-0.9
58307;BMP280;44116;50.884;4.768;2023-02-28T08:49:46;102580.0;;;-0.8
58307;BMP280;44116;50.884;4.768;2023-02-28T08:51:45;102570.0;;;-0.8
58307;BMP280;44116;50.884;4.768;2023-02-28T08:53:44;102580.0;;;-0.7
58307;BMP280;44116;50.884;4.768;2023-02-28T08:55:44;102580.0;;;-0.6
58307;BMP280;44116;50.884;4.768;2023-02-28T08:57:44;102580.0;;;-0.6
58307;BMP280;44116;50.884;4.768;2023-02-28T08:59:43;102580.0;;;-0.6
58307;BMP280;44116;50.884;4.768;2023-02-28T09:05:41;102570.0;;;-0.4
58307;BMP280;44116;50.884;4.768;2023-02-28T09:07:41;102570.0;;;-0.3
58307;BMP280;44116;50.884;4.768;2023-02-28T09:09:41;102570.0;;;-0.3
58307;BMP280;44116;50.884;4.768;2023-02-28T09:11:40;102570.0;;;-0.2
58307;BMP280;44116;50.884;4.768;2023-02-28T09:13:39;102570.0;;;-0.2
58307;BMP280;44116;50.884;4.768;2023-02-28T09:15:39;102559.99999999999;;;-0.1
58307;BMP280;44116;50.884;4.768;2023-02-28T09:17:38;102559.99999999999;;;-0.1
58307;BMP280;44116;50.884;4.768;2023-02-28T09:19:38;102559.99999999999;;;-0.0
58307;BMP280;44116;50.884;4.768;2023-02-28T09:23:37;102559.99999999999;;;0.0
58307;BMP280;44116;50.884;4.768;2023-02-28T09:25:36;102550.0;;;0.1
58307;BMP280;44116;50.884;4.768;2023-02-28T09:27:36;102550.0;;;0.2
58307;BMP280;44116;50.884;4.768;2023-02-28T09:29:35;102550.0;;;0.2
58307;BMP280;44116;50.884;4.768;2023-02-28T09:31:34;102550.0;;;0.2
58307;BMP280;44116;50.884;4.768;2023-02-28T09:33:34;102550.0;;;0.4
58307;BMP280;44116;50.884;4.768;2023-02-28T09:35:34;102540.00000000001;;;0.3
58307;BMP280;44116;50.884;4.768;2023-02-28T09:37:33;102540.00000000001;;;0.3
58307;BMP280;44116;50.884;4.768;2023-02-28T09:41:36;102540.00000000001;;;0.4
58307;BMP280;44116;50.884;4.768;2023-02-28T09:43:33;102540.00000000001;;;0.4
58307;BMP280;44116;50.884;4.768;2023-02-28T09:45:32;102540.00000000001;;;0.5
58307;BMP280;44116;50.884;4.768;2023-02-28T09:47:31;102540.00000000001;;;0.6
58307;BMP280;44116;50.884;4.768;2023-02-28T09:49:33;102550.0;;;0.6
58307;BMP280;44116;50.884;4.768;2023-02-28T09:51:33;102540.00000000001;;;0.6
58307;BMP280;44116;50.884;4.768;2023-02-28T09:53:30;102540.00000000001;;;0.6
58307;BMP280;44116;50.884;4.768;2023-02-28T09:55:30;102540.00000000001;;;0.6
58307;BMP280;44116;50.884;4.768;2023-02-28T09:59:35;102530.0;;;0.9
58307;BMP280;44116;50.884;4.768;2023-02-28T10:01:29;102520.0;;;0.8
58307;BMP280;44116;50.884;4.768;2023-02-28T10:03:28;102530.0;;;0.9
58307;BMP280;44116;50.884;4.768;2023-02-28T10:05:27;102520.0;;;1.0
58307;BMP280;44116;50.884;4.768;2023-02-28T10:09:26;102520.0;;;1.0
58307;BMP280;44116;50.884;4.768;2023-02-28T10:11:25;102530.0;;;1.2
58307;BMP280;44116;50.884;4.768;2023-02-28T10:13:25;102520.0;;;1.1
58307;BMP280;44116;50.884;4.768;2023-02-28T10:15:24;102520.0;;;1.1
58307;BMP280;44116;50.884;4.768;2023-02-28T10:17:23;102520.0;;;1.0
58307;BMP280;44116;50.884;4.768;2023-02-28T10:19:23;102509.99999999999;;;1.0
58307;BMP280;44116;50.884;4.768;2023-02-28T10:21:24;102509.99999999999;;;1.1
58307;BMP280;44116;50.884;4.768;2023-02-28T10:23:23;102509.99999999999;;;1.2
58307;BMP280;44116;50.884;4.768;2023-02-28T10:25:22;102520.0;;;1.4
58307;BMP280;44116;50.884;4.768;2023-02-28T10:27:21;102509.99999999999;;;1.4
58307;BMP280;44116;50.884;4.768;2023-02-28T10:31:20;102509.99999999999;;;1.3
58307;BMP280;44116;50.884;4.768;2023-02-28T10:33:21;102509.99999999999;;;1.4
58307;BMP280;44116;50.884;4.768;2023-02-28T10:35:20;102500.0;;;1.5
58307;BMP280;44116;50.884;4.768;2023-02-28T10:37:18;102500.0;;;1.6
58307;BMP280;44116;50.884;4.768;2023-02-28T10:43:18;102500.0;;;1.5
58307;BMP280;44116;50.884;4.768;2023-02-28T10:47:17;102490.00000000001;;;1.6
58307;BMP280;44116;50.884;4.768;2023-02-28T10:49:17;102490.00000000001;;;1.5
58307;BMP280;44116;50.884;4.768;2023-02-28T10:51:15;102490.00000000001;;;1.4
58307;BMP280;44116;50.884;4.768;2023-02-28T10:53:16;102490.00000000001;;;1.5
58307;BMP280;44116;50.884;4.768;2023-02-28T10:55:16;102490.00000000001;;;1.5
58307;BMP280;44116;50.884;4.768;2023-02-28T10:57:16;102480.0;;;1.7
58307;BMP280;44116;50.884;4.768;2023-02-28T11:01:13;102480.0;;;1.9
58307;BMP280;44116;50.884;4.768;2023-02-28T11:07:16;102470.0;;;1.9
58307;BMP280;44116;50.884;4.768;2023-02-28T11:11:11;102459.99999999999;;;2.1
58307;BMP280;44116;50.884;4.768;2023-02-28T11:15:18;102459.99999999999;;;2.2
58307;BMP280;44116;50.884;4.768;2023-02-28T11:17:13;102459.99999999999;;;2.2
58307;BMP280;44116;50.884;4.768;2023-02-28T11:19:15;102450.0;;;2.4
58307;BMP280;44116;50.884;4.768;2023-02-28T11:21:08;102450.0;;;2.4
58307;BMP280;44116;50.884;4.768;2023-02-28T11:23:10;102450.0;;;2.3
58307;BMP280;44116;50.884;4.768;2023-02-28T11:27:11;102440.00000000001;;;2.3
58307;BMP280;44116;50.884;4.768;2023-02-28T11:29:10;102440.00000000001;;;2.2
58307;BMP280;44116;50.884;4.768;2023-02-28T11:31:15;102440.00000000001;;;2.2
58307;BMP280;44116;50.884;4.768;2023-02-28T11:35:13;102440.00000000001;;;2.0
58307;BMP280;44116;50.884;4.768;2023-02-28T11:37:05;102440.00000000001;;;2.2
58307;BMP280;44116;50.884;4.768;2023-02-28T11:39:08;102440.00000000001;;;2.2
58307;BMP280;44116;50.884;4.768;2023-02-28T11:41:07;102440.00000000001;;;2.2
58307;BMP280;44116;50.884;4.768;2023-02-28T11:43:06;102440.00000000001;;;2.4
58307;BMP280;44116;50.884;4.768;2023-02-28T11:45:08;102430.0;;;2.3
58307;BMP280;44116;50.884;4.768;2023-02-28T11:47:04;102430.0;;;2.3
58307;BMP280;44116;50.884;4.768;2023-02-28T11:49:03;102420.0;;;2.3
58307;BMP280;44116;50.884;4.768;2023-02-28T11:51:04;102430.0;;;2.5
58307;BMP280;44116;50.884;4.768;2023-02-28T11:53:02;102430.0;;;2.7
58307;BMP280;44116;50.884;4.768;2023-02-28T11:55:07;102430.0;;;2.7
58307;BMP280;44116;50.884;4.768;2023-02-28T11:57:00;102430.0;;;2.6
58307;BMP280;44116;50.884;4.768;2023-02-28T11:59:03;102430.0;;;2.8
58307;BMP280;44116;50.884;4.768;2023-02-28T12:01:03;102420.0;;;2.7
58307;BMP280;44116;50.884;4.768;2023-02-28T12:03:00;102420.0;;;3.1
58307;BMP280;44116;50.884;4.768;2023-02-28T12:05:02;102420.0;;;3.0
58307;BMP280;44116;50.884;4.768;2023-02-28T12:07:00;102420.0;;;3.1
58307;BMP280;44116;50.884;4.768;2023-02-28T12:14:59;102409.99999999999;;;2.8
58307;BMP280;44116;50.884;4.768;2023-02-28T12:16:59;102400.0;;;2.7
58307;BMP280;44116;50.884;4.768;2023-02-28T12:18:59;102400.0;;;2.7
58307;BMP280;44116;50.884;4.768;2023-02-28T12:20:57;102400.0;;;2.6
58307;BMP280;44116;50.884;4.768;2023-02-28T12:22:56;102400.0;;;2.8
58307;BMP280;44116;50.884;4.768;2023-02-28T12:24:58;102390.0;;;2.9
58307;BMP280;44116;50.884;4.768;2023-02-28T12:26:53;102390.0;;;2.8
58307;BMP280;44116;50.884;4.768;2023-02-28T12:32:53;102380.0;;;2.8
58307;BMP280;44116;50.884;4.768;2023-02-28T12:34:52;102380.0;;;2.9
58307;BMP280;44116;50.884;4.768;2023-02-28T12:40:52;102370.0;;;2.9
58307;BMP280;44116;50.884;4.768;2023-02-28T12:42:50;102370.0;;;3.3
58307;BMP280;44116;50.884;4.768;2023-02-28T12:46:49;102360.0;;;3.2
58307;BMP280;44116;50.884;4.768;2023-02-28T12:48:49;102360.0;;;3.4